createdAt,value
2017-12-28T00:01:45.339Z,1.10
2017-12-28T00:04:12.839Z,1.00
2017-12-28T00:06:41.081Z,1.00
2017-12-28T00:09:10.099Z,1.00
2017-12-28T00:11:38.357Z,1.00
2017-12-28T00:14:05.879Z,1.00
2017-12-28T00:16:33.394Z,0.90
2017-12-28T00:19:01.647Z,0.90
2017-12-28T00:21:29.116Z,0.90
2017-12-28T00:23:56.604Z,0.90
2017-12-28T00:26:24.962Z,0.90
2017-12-28T00:28:53.212Z,0.90
2017-12-28T00:31:20.686Z,0.90
2017-12-28T00:33:48.978Z,0.90
2017-12-28T00:36:17.222Z,0.90
2017-12-28T00:38:44.709Z,0.90
2017-12-28T00:41:12.978Z,0.90
2017-12-28T00:43:40.683Z,0.90
2017-12-28T00:46:08.160Z,0.90
2017-12-28T00:48:35.640Z,0.90
2017-12-28T00:51:03.184Z,0.90
2017-12-28T00:53:30.673Z,0.90
2017-12-28T00:55:58.157Z,0.90
2017-12-28T00:58:25.705Z,0.90
2017-12-28T01:00:53.951Z,0.90
2017-12-28T01:03:21.435Z,0.80
2017-12-28T01:05:49.691Z,0.90
2017-12-28T01:08:18.699Z,0.90
2017-12-28T01:10:46.231Z,0.90
2017-12-28T01:13:13.711Z,0.90
2017-12-28T01:15:41.186Z,0.90
2017-12-28T01:18:09.433Z,0.90
2017-12-28T01:20:36.918Z,0.80
2017-12-28T01:23:05.166Z,0.90
2017-12-28T01:25:32.666Z,0.90
2017-12-28T01:28:00.933Z,0.90
2017-12-28T01:30:29.190Z,0.90
2017-12-28T01:32:56.672Z,0.80
2017-12-28T01:35:24.190Z,0.90
2017-12-28T01:37:51.796Z,0.90
2017-12-28T01:40:20.066Z,0.90
2017-12-28T01:42:48.333Z,0.90
2017-12-28T01:45:16.578Z,0.90
2017-12-28T01:47:56.064Z,0.90
2017-12-28T01:50:23.552Z,0.90
2017-12-28T01:52:51.048Z,0.90
2017-12-28T01:55:20.053Z,0.90
2017-12-28T01:57:48.302Z,0.90
2017-12-28T02:00:15.781Z,0.90
2017-12-28T02:02:43.281Z,0.90
2017-12-28T02:05:10.755Z,0.90
2017-12-28T02:07:38.237Z,0.90
2017-12-28T02:10:05.732Z,0.90
2017-12-28T02:12:33.237Z,0.90
2017-12-28T02:15:00.709Z,0.90
2017-12-28T02:17:28.199Z,0.90
2017-12-28T02:19:56.475Z,0.90
2017-12-28T02:22:24.757Z,0.80
2017-12-28T02:24:52.311Z,0.80
2017-12-28T02:27:20.555Z,0.80
2017-12-28T02:29:48.032Z,0.80
2017-12-28T02:32:15.524Z,0.80
2017-12-28T02:34:43.080Z,0.90
2017-12-28T02:37:11.315Z,0.90
2017-12-28T02:39:40.322Z,0.80
2017-12-28T02:42:07.798Z,0.90
2017-12-28T02:44:36.042Z,0.90
2017-12-28T02:47:03.530Z,0.90
2017-12-28T02:49:31.766Z,0.90
2017-12-28T02:51:59.242Z,0.90
2017-12-28T02:54:26.811Z,0.90
2017-12-28T02:56:54.286Z,0.90
2017-12-28T02:59:22.522Z,0.90
2017-12-28T03:01:50.010Z,0.90
2017-12-28T03:04:18.249Z,0.90
2017-12-28T03:06:45.725Z,0.90
2017-12-28T03:09:14.737Z,0.90
2017-12-28T03:11:42.983Z,0.90
2017-12-28T03:14:10.463Z,0.90
2017-12-28T03:16:37.945Z,0.90
2017-12-28T03:19:05.435Z,0.90
2017-12-28T03:21:32.954Z,0.90
2017-12-28T03:24:00.459Z,0.90
2017-12-28T03:26:27.935Z,0.90
2017-12-28T03:28:55.419Z,0.90
2017-12-28T03:31:23.673Z,0.90
2017-12-28T03:33:51.784Z,0.90
2017-12-28T03:36:20.027Z,0.90
2017-12-28T03:38:47.530Z,0.90
2017-12-28T03:41:15.007Z,0.90
2017-12-28T03:43:42.484Z,0.90
2017-12-28T03:46:10.278Z,0.90
2017-12-28T03:48:37.757Z,0.90
2017-12-28T03:51:06.066Z,1.00
2017-12-28T03:53:33.557Z,0.90
2017-12-28T03:56:01.805Z,0.90
2017-12-28T03:58:29.278Z,0.90
2017-12-28T04:00:56.782Z,0.90
2017-12-28T04:03:25.018Z,0.90
2017-12-28T04:05:52.503Z,0.90
2017-12-28T04:08:20.779Z,0.90
2017-12-28T04:10:49.027Z,0.90
2017-12-28T04:13:16.517Z,0.90
2017-12-28T04:15:44.809Z,0.90
2017-12-28T04:18:12.351Z,0.90
2017-12-28T04:20:40.605Z,1.00
2017-12-28T04:23:08.099Z,0.90
2017-12-28T04:25:36.341Z,1.00
2017-12-28T04:28:05.324Z,1.00
2017-12-28T04:30:32.814Z,1.00
2017-12-28T04:33:00.378Z,1.00
2017-12-28T04:35:28.623Z,1.00
2017-12-28T04:37:56.210Z,1.00
2017-12-28T04:40:24.455Z,1.00
2017-12-28T04:42:51.934Z,1.00
2017-12-28T04:45:19.446Z,1.00
2017-12-28T04:47:46.906Z,1.10
2017-12-28T04:50:14.386Z,1.10
2017-12-28T04:52:41.874Z,1.10
2017-12-28T04:55:10.121Z,1.10
2017-12-28T04:57:37.629Z,1.10
2017-12-28T05:00:05.126Z,1.10
2017-12-28T05:02:32.607Z,1.10
2017-12-28T05:05:00.074Z,1.10
2017-12-28T05:07:27.761Z,1.10
2017-12-28T05:09:55.244Z,1.20
2017-12-28T05:12:22.713Z,1.20
2017-12-28T05:14:50.207Z,1.20
2017-12-28T05:17:18.447Z,1.10
2017-12-28T05:19:45.919Z,1.10
2017-12-28T05:22:13.402Z,1.10
2017-12-28T05:24:41.067Z,1.10
2017-12-28T05:27:08.541Z,1.10
2017-12-28T05:29:36.075Z,1.10
2017-12-28T05:32:03.554Z,1.10
2017-12-28T05:34:31.794Z,1.10
2017-12-28T05:36:59.282Z,1.10
2017-12-28T05:39:27.529Z,1.20
2017-12-28T05:41:55.003Z,1.20
2017-12-28T05:44:22.490Z,1.20
2017-12-28T05:46:49.974Z,1.20
2017-12-28T05:49:17.446Z,1.20
2017-12-28T05:51:44.933Z,1.20
2017-12-28T05:54:12.400Z,1.20
2017-12-28T05:56:39.866Z,1.30
2017-12-28T05:59:08.120Z,1.30
2017-12-28T06:01:35.593Z,1.30
2017-12-28T06:04:03.837Z,1.40
2017-12-28T06:06:31.318Z,1.40
2017-12-28T06:08:58.793Z,1.40
2017-12-28T06:11:27.021Z,1.40
2017-12-28T06:13:54.507Z,1.40
2017-12-28T06:16:22.743Z,1.50
2017-12-28T06:18:50.209Z,1.50
2017-12-28T06:21:17.695Z,1.50
2017-12-28T06:23:45.931Z,1.50
2017-12-28T06:26:13.429Z,1.50
2017-12-28T06:28:40.911Z,1.50
2017-12-28T06:31:09.151Z,1.60
2017-12-28T06:33:36.621Z,1.50
2017-12-28T06:36:04.096Z,1.50
2017-12-28T06:38:32.342Z,1.60
2017-12-28T06:40:59.818Z,1.60
2017-12-28T06:43:28.110Z,1.60
2017-12-28T06:45:55.582Z,1.60
2017-12-28T06:48:23.818Z,1.60
2017-12-28T06:50:52.010Z,1.60
2017-12-28T06:53:19.478Z,1.60
2017-12-28T06:55:47.714Z,1.70
2017-12-28T06:58:15.202Z,1.70
2017-12-28T07:00:42.691Z,1.70
2017-12-28T07:03:10.236Z,1.70
2017-12-28T07:05:38.501Z,1.70
2017-12-28T07:08:05.975Z,1.70
2017-12-28T07:10:34.214Z,1.70
2017-12-28T07:13:03.206Z,1.70
2017-12-28T07:15:30.685Z,1.70
2017-12-28T07:17:58.241Z,1.70
2017-12-28T07:20:25.725Z,1.70
2017-12-28T07:22:53.317Z,1.70
2017-12-28T07:25:20.863Z,1.70
2017-12-28T07:27:48.353Z,1.70
2017-12-28T07:32:49.669Z,1.70
2017-12-28T07:35:17.179Z,1.80
2017-12-28T07:37:44.644Z,1.80
2017-12-28T07:40:12.132Z,1.80
2017-12-28T07:42:40.366Z,1.80
2017-12-28T07:45:07.837Z,1.80
2017-12-28T07:47:36.076Z,1.80
2017-12-28T07:50:03.558Z,1.80
2017-12-28T07:52:31.038Z,1.80
2017-12-28T07:54:58.518Z,1.70
2017-12-28T07:57:26.766Z,1.70
2017-12-28T07:59:54.998Z,1.70
2017-12-28T08:02:22.514Z,1.70
2017-12-28T08:04:49.990Z,1.70
2017-12-28T08:07:18.235Z,1.70
2017-12-28T08:09:45.719Z,1.70
2017-12-28T08:12:13.959Z,1.70
2017-12-28T08:14:41.430Z,1.70
2017-12-28T08:17:08.997Z,1.70
2017-12-28T08:19:36.471Z,1.70
2017-12-28T08:22:04.705Z,1.60
2017-12-28T08:24:32.187Z,1.70
2017-12-28T08:26:59.667Z,1.60
2017-12-28T08:29:27.896Z,1.60
2017-12-28T08:31:55.423Z,1.60
2017-12-28T08:34:23.190Z,1.60
2017-12-28T08:36:51.891Z,1.60
2017-12-28T08:39:19.393Z,1.60
2017-12-28T08:41:46.867Z,1.60
2017-12-28T08:44:15.099Z,1.60
2017-12-28T08:46:42.588Z,1.60
2017-12-28T08:49:10.834Z,1.70
2017-12-28T08:51:38.322Z,1.70
2017-12-28T08:54:06.574Z,1.80
2017-12-28T08:56:34.046Z,1.80
2017-12-28T08:59:01.522Z,1.80
2017-12-28T09:01:29.792Z,1.80
2017-12-28T09:03:58.030Z,1.80
2017-12-28T09:06:25.502Z,1.80
2017-12-28T09:08:52.978Z,1.80
2017-12-28T09:11:21.264Z,1.80
2017-12-28T09:13:49.497Z,1.80
2017-12-28T09:16:16.989Z,1.80
2017-12-28T09:18:44.461Z,1.80
2017-12-28T09:21:12.701Z,1.80
2017-12-28T09:23:40.229Z,1.80
2017-12-28T09:26:07.763Z,1.90
2017-12-28T09:28:35.261Z,1.90
2017-12-28T09:31:02.751Z,2.00
2017-12-28T09:33:30.217Z,2.00
2017-12-28T09:35:58.455Z,2.00
2017-12-28T09:38:26.297Z,2.00
2017-12-28T09:40:53.772Z,2.00
2017-12-28T09:43:21.242Z,2.00
2017-12-28T09:45:48.734Z,2.00
2017-12-28T09:48:16.214Z,1.90
2017-12-28T09:50:43.723Z,1.90
2017-12-28T09:53:11.202Z,2.00
2017-12-28T09:55:38.664Z,1.90
2017-12-28T09:58:06.906Z,2.00
2017-12-28T10:00:34.394Z,2.00
2017-12-28T10:03:01.900Z,2.10
2017-12-28T10:05:29.390Z,2.10
2017-12-28T10:07:56.870Z,2.10
2017-12-28T10:10:24.338Z,2.10
2017-12-28T10:12:52.580Z,2.10
2017-12-28T10:15:20.057Z,2.10
2017-12-28T10:17:47.537Z,2.10
2017-12-28T10:20:15.774Z,2.20
2017-12-28T10:22:43.253Z,2.10
2017-12-28T10:25:10.721Z,2.20
2017-12-28T10:27:38.954Z,2.10
2017-12-28T10:30:06.441Z,2.10
2017-12-28T10:32:33.924Z,2.10
2017-12-28T10:35:01.412Z,2.20
2017-12-28T10:37:28.918Z,2.30
2017-12-28T10:39:56.458Z,2.40
2017-12-28T10:42:23.925Z,2.40
2017-12-28T10:44:51.519Z,2.40
2017-12-28T10:47:19.782Z,2.40
2017-12-28T10:49:48.022Z,2.40
2017-12-28T10:52:15.502Z,2.40
2017-12-28T10:54:42.986Z,2.40
2017-12-28T10:57:11.234Z,2.30
2017-12-28T10:59:38.722Z,2.30
2017-12-28T11:02:06.964Z,2.30
2017-12-28T11:04:35.937Z,2.40
2017-12-28T11:07:03.419Z,2.40
2017-12-28T11:09:30.899Z,2.40
2017-12-28T11:11:59.144Z,2.40
2017-12-28T11:14:26.625Z,2.40
2017-12-28T11:16:54.904Z,2.40
2017-12-28T11:19:23.141Z,2.50
2017-12-28T11:21:50.632Z,2.40
2017-12-28T11:24:19.611Z,2.60
2017-12-28T11:26:47.091Z,2.50
2017-12-28T11:29:15.339Z,2.50
2017-12-28T11:31:42.887Z,2.50
2017-12-28T11:34:10.359Z,2.40
2017-12-28T11:36:37.839Z,2.50
2017-12-28T11:39:06.087Z,2.40
2017-12-28T11:41:33.583Z,2.40
2017-12-28T11:44:01.838Z,2.40
2017-12-28T11:46:29.318Z,2.40
2017-12-28T11:48:57.554Z,2.20
2017-12-28T11:51:25.042Z,2.20
2017-12-28T11:53:58.987Z,2.00
2017-12-28T11:56:46.206Z,2.00
2017-12-28T11:59:18.646Z,1.80
2017-12-28T12:01:52.630Z,1.70
2017-12-28T12:04:22.029Z,1.70
2017-12-28T12:06:55.230Z,1.70
2017-12-28T12:09:22.694Z,1.60
2017-12-28T12:11:50.170Z,1.60
2017-12-28T12:14:18.425Z,1.70
2017-12-28T12:16:46.666Z,1.70
2017-12-28T12:19:14.139Z,1.70
2017-12-28T12:21:41.629Z,1.70
2017-12-28T12:24:09.103Z,1.70
2017-12-28T12:26:37.341Z,1.70
2017-12-28T12:29:04.823Z,1.70
2017-12-28T12:31:33.071Z,1.80
2017-12-28T12:34:00.537Z,1.80
2017-12-28T12:36:28.019Z,1.80
2017-12-28T12:38:56.253Z,1.80
2017-12-28T12:41:23.738Z,1.80
2017-12-28T12:43:51.223Z,1.80
2017-12-28T12:46:19.457Z,1.90
2017-12-28T12:48:46.938Z,1.90
2017-12-28T12:51:15.226Z,1.80
2017-12-28T12:53:43.470Z,1.80
2017-12-28T12:56:10.942Z,1.80
2017-12-28T12:58:38.428Z,1.80
2017-12-28T13:01:06.682Z,1.90
2017-12-28T13:03:35.010Z,1.90
2017-12-28T13:06:02.498Z,1.90
2017-12-28T13:08:29.974Z,1.90
2017-12-28T13:10:57.449Z,1.90
2017-12-28T13:13:25.700Z,1.90
2017-12-28T13:15:53.169Z,1.90
2017-12-28T13:18:21.414Z,1.90
2017-12-28T13:20:48.902Z,1.90
2017-12-28T13:23:17.187Z,1.90
2017-12-28T13:25:45.434Z,2.00
2017-12-28T13:28:12.919Z,1.90
2017-12-28T13:30:41.167Z,2.00
2017-12-28T13:33:08.639Z,2.00
2017-12-28T13:35:37.651Z,2.00
2017-12-28T13:38:05.949Z,2.00
2017-12-28T13:40:33.527Z,2.00
2017-12-28T13:43:01.001Z,2.10
2017-12-28T13:45:28.510Z,2.10
2017-12-28T13:47:56.747Z,2.10
2017-12-28T13:50:24.227Z,2.10
2017-12-28T13:52:51.703Z,2.10
2017-12-28T13:55:19.492Z,2.10
2017-12-28T13:57:47.000Z,2.10
2017-12-28T14:00:15.299Z,2.10
2017-12-28T14:02:42.738Z,2.10
2017-12-28T14:05:10.230Z,2.10
2017-12-28T14:07:37.708Z,2.10
2017-12-28T14:10:05.178Z,2.10
2017-12-28T14:12:32.676Z,2.10
2017-12-28T14:15:00.152Z,2.10
2017-12-28T14:17:28.516Z,2.10
2017-12-28T14:19:56.938Z,2.10
2017-12-28T14:22:24.516Z,2.10
2017-12-28T14:24:51.987Z,2.10
2017-12-28T14:27:19.471Z,2.10
2017-12-28T14:29:46.941Z,2.10
2017-12-28T14:32:15.192Z,2.00
2017-12-28T14:34:44.185Z,2.00
2017-12-28T14:37:13.169Z,2.00
2017-12-28T14:39:40.765Z,2.00
2017-12-28T14:42:09.027Z,1.90
2017-12-28T14:44:36.497Z,1.90
2017-12-28T14:47:04.755Z,1.90
2017-12-28T14:49:32.233Z,1.90
2017-12-28T14:52:00.475Z,1.80
2017-12-28T14:54:27.946Z,1.80
2017-12-28T14:56:55.472Z,1.80
2017-12-28T14:59:22.920Z,1.80
2017-12-28T15:01:50.400Z,1.80
2017-12-28T15:04:17.890Z,1.80
2017-12-28T15:06:46.170Z,1.80
2017-12-28T15:09:14.411Z,1.80
2017-12-28T15:11:41.984Z,1.80
2017-12-28T15:14:10.291Z,1.80
2017-12-28T15:16:38.530Z,1.80
2017-12-28T15:19:06.986Z,1.80
2017-12-28T15:21:34.483Z,1.80
2017-12-28T15:24:01.958Z,1.80
2017-12-28T15:26:30.202Z,1.80
2017-12-28T15:28:57.674Z,1.80
2017-12-28T15:31:25.170Z,1.80
2017-12-28T15:33:52.649Z,1.80
2017-12-28T15:36:20.132Z,1.80
2017-12-28T15:38:47.605Z,1.70
2017-12-28T15:41:15.095Z,1.80
2017-12-28T15:43:43.351Z,1.70
2017-12-28T15:46:10.821Z,1.70
2017-12-28T15:48:39.087Z,1.70
2017-12-28T15:51:07.332Z,1.70
2017-12-28T15:53:34.810Z,1.70
2017-12-28T15:56:02.295Z,1.70
2017-12-28T15:58:30.604Z,1.70
2017-12-28T16:00:58.083Z,1.70
2017-12-28T16:03:25.574Z,1.70
2017-12-28T16:05:53.860Z,1.70
2017-12-28T16:08:22.130Z,1.70
2017-12-28T16:10:50.406Z,1.70
2017-12-28T16:13:18.668Z,1.70
2017-12-28T16:15:46.376Z,1.70
2017-12-28T16:18:14.002Z,1.70
2017-12-28T16:20:42.252Z,1.80
2017-12-28T16:23:09.742Z,1.80
2017-12-28T16:25:38.002Z,1.80
2017-12-28T16:28:05.586Z,1.80
2017-12-28T16:30:33.064Z,1.80
2017-12-28T16:33:00.583Z,1.80
2017-12-28T16:35:28.059Z,1.80
2017-12-28T16:37:56.300Z,1.80
2017-12-28T16:40:23.787Z,1.80
2017-12-28T16:42:52.489Z,1.80
2017-12-28T16:45:19.976Z,1.80
2017-12-28T16:47:47.458Z,1.80
2017-12-28T16:50:14.947Z,1.80
2017-12-28T16:52:43.197Z,1.70
2017-12-28T16:55:10.865Z,1.70
2017-12-28T16:57:38.419Z,1.70
2017-12-28T17:00:05.901Z,1.70
2017-12-28T17:02:34.173Z,1.70
2017-12-28T17:05:02.422Z,1.70
2017-12-28T17:07:29.904Z,1.70
2017-12-28T17:09:57.425Z,1.70
2017-12-28T17:12:24.894Z,1.70
2017-12-28T17:14:52.370Z,1.70
2017-12-28T17:17:19.861Z,1.70
2017-12-28T17:19:48.093Z,1.70
2017-12-28T17:22:15.575Z,1.70
2017-12-28T17:24:43.850Z,1.60
2017-12-28T17:27:11.322Z,1.60
2017-12-28T17:29:39.590Z,1.60
2017-12-28T17:32:07.883Z,1.60
2017-12-28T17:34:35.356Z,1.60
2017-12-28T17:37:02.834Z,1.60
2017-12-28T17:39:30.331Z,1.60
2017-12-28T17:41:57.811Z,1.60
2017-12-28T17:44:26.056Z,1.60
2017-12-28T17:46:53.592Z,1.60
2017-12-28T17:49:21.091Z,1.60
2017-12-28T17:51:49.346Z,1.50
2017-12-28T17:54:16.834Z,1.50
2017-12-28T17:56:45.086Z,1.50
2017-12-28T17:59:12.563Z,1.50
2017-12-28T18:01:40.833Z,1.50
2017-12-28T18:04:08.314Z,1.50
2017-12-28T18:06:36.098Z,1.50
2017-12-28T18:09:03.618Z,1.40
2017-12-28T18:11:31.864Z,1.40
2017-12-28T18:13:59.338Z,1.40
2017-12-28T18:16:26.822Z,1.40
2017-12-28T18:18:55.198Z,1.50
2017-12-28T18:21:23.446Z,1.50
2017-12-28T18:23:50.938Z,1.50
2017-12-28T18:26:19.182Z,1.60
2017-12-28T18:28:47.538Z,1.60
2017-12-28T18:31:15.026Z,1.50
2017-12-28T18:33:42.614Z,1.50
2017-12-28T18:36:10.109Z,1.50
2017-12-28T18:38:37.606Z,1.50
2017-12-28T18:41:05.091Z,1.50
2017-12-28T18:43:32.635Z,1.50
2017-12-28T18:46:01.565Z,1.50
2017-12-28T18:48:29.873Z,1.50
2017-12-28T18:50:57.357Z,1.40
2017-12-28T18:53:25.643Z,1.40
2017-12-28T18:55:53.883Z,1.40
2017-12-28T18:58:21.396Z,1.40
2017-12-28T19:00:48.884Z,1.40
2017-12-28T19:03:16.393Z,1.40
2017-12-28T19:05:43.955Z,1.40
2017-12-28T19:08:12.210Z,1.20
2017-12-28T19:10:39.678Z,1.20
2017-12-28T19:13:07.918Z,1.00
2017-12-28T19:15:35.527Z,1.00
2017-12-28T19:18:03.783Z,0.80
2017-12-28T19:20:31.704Z,0.80
2017-12-28T19:22:59.182Z,0.70
2017-12-28T19:25:26.749Z,0.60
2017-12-28T19:27:54.232Z,0.60
2017-12-28T19:30:21.720Z,0.60
2017-12-28T19:32:49.210Z,0.50
2017-12-28T19:35:16.678Z,0.40
2017-12-28T19:37:44.277Z,0.40
2017-12-28T19:40:12.518Z,0.40
2017-12-28T19:42:39.993Z,0.40
2017-12-28T19:45:07.573Z,0.40
2017-12-28T19:47:35.837Z,0.40
2017-12-28T19:50:04.082Z,0.40
2017-12-28T19:52:31.557Z,0.40
2017-12-28T19:54:59.043Z,0.40
2017-12-28T19:57:27.289Z,0.30
2017-12-28T19:59:55.545Z,0.30
2017-12-28T20:02:23.013Z,0.30
2017-12-28T20:04:50.488Z,0.30
2017-12-28T20:07:19.563Z,0.30
2017-12-28T20:09:47.039Z,0.30
2017-12-28T20:12:14.547Z,0.30
2017-12-28T20:14:42.035Z,0.30
2017-12-28T20:17:09.537Z,0.30
2017-12-28T20:19:37.799Z,0.30
2017-12-28T20:22:06.338Z,0.40
2017-12-28T20:24:33.814Z,0.40
2017-12-28T20:27:01.290Z,0.60
2017-12-28T20:29:29.546Z,0.80
2017-12-28T20:31:57.048Z,0.80
2017-12-28T20:34:25.282Z,0.80
2017-12-28T20:36:53.565Z,0.80
2017-12-28T20:39:21.033Z,0.90
2017-12-28T20:41:50.093Z,1.00
2017-12-28T20:44:17.586Z,1.00
2017-12-28T20:46:46.566Z,1.00
2017-12-28T20:49:14.060Z,1.00
2017-12-28T20:51:42.317Z,1.00
2017-12-28T20:54:10.144Z,1.00
2017-12-28T20:56:37.616Z,0.90
2017-12-28T20:59:05.110Z,0.90
2017-12-28T21:01:32.611Z,0.90
2017-12-28T21:04:00.086Z,0.80
2017-12-28T21:06:27.565Z,0.80
2017-12-28T21:08:55.803Z,0.70
2017-12-28T21:11:23.282Z,0.70
2017-12-28T21:13:50.862Z,0.80
2017-12-28T21:16:19.860Z,0.80
2017-12-28T21:18:47.350Z,0.80
2017-12-28T21:21:15.605Z,0.60
2017-12-28T21:23:43.090Z,0.60
2017-12-28T21:26:10.569Z,0.60
2017-12-28T21:28:38.062Z,0.50
2017-12-28T21:31:05.587Z,0.50
2017-12-28T21:33:33.061Z,0.50
2017-12-28T21:36:00.555Z,0.50
2017-12-28T21:38:28.802Z,0.50
2017-12-28T21:40:56.276Z,0.50
2017-12-28T21:43:24.526Z,0.50
2017-12-28T21:45:52.050Z,0.50
2017-12-28T21:48:19.583Z,0.50
2017-12-28T21:50:47.058Z,0.60
2017-12-28T21:53:15.310Z,0.50
2017-12-28T21:55:42.787Z,0.50
2017-12-28T21:58:11.042Z,0.50
2017-12-28T22:00:38.628Z,0.50
2017-12-28T22:03:06.104Z,0.60
2017-12-28T22:05:34.127Z,0.60
2017-12-28T22:08:02.369Z,0.60
2017-12-28T22:10:29.845Z,0.60
2017-12-28T22:12:57.335Z,0.60
2017-12-28T22:15:25.575Z,0.60
2017-12-28T22:17:53.207Z,0.60
2017-12-28T22:20:20.694Z,0.60
2017-12-28T22:22:48.195Z,0.60
2017-12-28T22:25:16.424Z,0.60
2017-12-28T22:27:43.923Z,0.60
2017-12-28T22:30:12.176Z,0.70
2017-12-28T22:32:39.674Z,0.70
2017-12-28T22:35:08.032Z,0.80
2017-12-28T22:37:35.514Z,0.80
2017-12-28T22:40:03.750Z,0.90
2017-12-28T22:42:31.328Z,0.80
2017-12-28T22:44:59.610Z,0.90
2017-12-28T22:47:27.854Z,0.90
2017-12-28T22:49:55.345Z,0.90
2017-12-28T22:52:23.597Z,0.90
2017-12-28T22:54:51.074Z,0.90
2017-12-28T22:57:19.335Z,0.90
2017-12-28T22:59:46.907Z,0.80
2017-12-28T23:02:14.386Z,0.90
2017-12-28T23:04:43.739Z,0.80
2017-12-28T23:07:12.735Z,0.80
2017-12-28T23:09:40.570Z,0.80
2017-12-28T23:12:08.059Z,0.80
2017-12-28T23:14:35.567Z,0.80
2017-12-28T23:17:03.047Z,0.80
2017-12-28T23:19:30.538Z,0.80
2017-12-28T23:21:58.009Z,0.80
2017-12-28T23:24:26.254Z,0.70
2017-12-28T23:26:53.742Z,0.70
2017-12-28T23:29:21.982Z,0.70
2017-12-28T23:31:49.450Z,0.70
2017-12-28T23:34:16.946Z,0.70
2017-12-28T23:36:45.173Z,0.70
2017-12-28T23:39:12.662Z,0.70
2017-12-28T23:41:41.654Z,0.60
2017-12-28T23:44:09.907Z,0.60
2017-12-28T23:46:37.379Z,0.70
2017-12-28T23:49:04.894Z,0.60
2017-12-28T23:51:32.370Z,0.60
2017-12-28T23:53:59.851Z,0.60
2017-12-28T23:56:27.343Z,0.60
2017-12-28T23:58:54.834Z,0.60
